SIN weather

Singapore Changi Airport
Singapore, South East, Singapore

Public forecast

Using degrees Celsius for public forecast. Weather courtesy of forecast.io.

Current aviation weather report (METAR) for Singapore Changi Airport

Retrieved 2020/08/08 00:00 UTC (13 minutes ago):

WSSS 080000Z 16005KT 140V200 9999 FEW016 BKN300 28/25 Q1009 NOSIG

Aviation forecast (TAF) for Singapore Changi Airport

Retrieved 2020-08-08 00:09 UTC (4 minutes ago):

TAF WSSS 072300Z 0800/0906 16007KT 9999 FEW015 SCT020